createdAt,value
2022-08-05T00:01:35.522Z,100.00
2022-08-05T00:04:42.602Z,100.00
2022-08-05T00:08:00.621Z,100.00
2022-08-05T00:11:20.616Z,100.00
2022-08-05T00:14:34.480Z,100.00
2022-08-05T00:17:40.972Z,100.00
2022-08-05T00:20:48.157Z,100.00
2022-08-05T00:24:10.589Z,100.00
2022-08-05T00:27:19.219Z,100.00
2022-08-05T00:30:29.203Z,100.00
2022-08-05T00:34:54.080Z,100.00
2022-08-05T00:37:11.307Z,100.00
2022-08-05T00:40:27.439Z,100.00
2022-08-05T00:43:47.034Z,100.00
2022-08-05T00:47:02.129Z,100.00
2022-08-05T00:50:11.347Z,100.00
2022-08-05T00:54:00.921Z,100.00
2022-08-05T00:56:51.819Z,100.00
2022-08-05T01:00:00.420Z,100.00
2022-08-05T01:03:07.827Z,100.00
2022-08-05T01:06:15.432Z,100.00
2022-08-05T01:09:21.923Z,100.00
2022-08-05T01:12:29.695Z,100.00
2022-08-05T01:15:48.241Z,100.00
2022-08-05T01:19:07.317Z,100.00
2022-08-05T01:22:34.112Z,100.00
2022-08-05T01:25:56.354Z,100.00
2022-08-05T01:29:07.331Z,100.00
2022-08-05T01:32:19.975Z,100.00
2022-08-05T01:35:52.107Z,100.00
2022-08-05T01:39:01.019Z,100.00
2022-08-05T01:42:10.534Z,100.00
2022-08-05T01:45:22.267Z,100.00
2022-08-05T01:48:31.549Z,100.00
2022-08-05T01:51:39.682Z,100.00
2022-08-05T01:54:52.824Z,100.00
2022-08-05T01:58:10.214Z,100.00
2022-08-05T02:01:25.271Z,100.00
2022-08-05T02:04:35.643Z,100.00
2022-08-05T02:07:57.897Z,100.00
2022-08-05T02:11:11.813Z,100.00
2022-08-05T02:14:23.295Z,100.00
2022-08-05T02:18:28.535Z,100.00
2022-08-05T02:21:14.712Z,100.00
2022-08-05T02:24:24.388Z,100.00
2022-08-05T02:27:58.900Z,100.00
2022-08-05T02:31:04.058Z,100.00
2022-08-05T02:34:13.053Z,100.00
2022-08-05T02:37:21.498Z,100.00
2022-08-05T02:40:28.378Z,100.00
2022-08-05T02:43:35.577Z,100.00
2022-08-05T02:47:03.172Z,100.00
2022-08-05T02:50:14.678Z,100.00
2022-08-05T02:53:25.073Z,100.00
2022-08-05T02:56:36.431Z,100.00
2022-08-05T02:59:50.487Z,100.00
2022-08-05T03:02:59.374Z,100.00
2022-08-05T03:06:55.504Z,100.00
2022-08-05T03:09:37.609Z,100.00
2022-08-05T03:12:44.968Z,100.00
2022-08-05T03:15:58.391Z,100.00
2022-08-05T03:19:17.458Z,100.00
2022-08-05T03:22:32.837Z,100.00
2022-08-05T03:26:04.818Z,100.00
2022-08-05T03:29:07.710Z,100.00
2022-08-05T03:32:20.695Z,100.00
2022-08-05T03:35:40.738Z,100.00
2022-08-05T03:38:53.297Z,100.00
2022-08-05T03:41:59.618Z,100.00
2022-08-05T03:45:22.086Z,100.00
2022-08-05T03:48:29.681Z,100.00
2022-08-05T03:52:37.710Z,100.00
2022-08-05T03:56:05.518Z,100.00
2022-08-05T03:58:41.133Z,100.00
2022-08-05T04:01:50.574Z,100.00
2022-08-05T04:04:58.747Z,100.00
2022-08-05T04:08:30.372Z,100.00
2022-08-05T04:11:47.129Z,100.00
2022-08-05T04:14:54.890Z,100.00
2022-08-05T04:18:06.772Z,100.00
2022-08-05T04:21:14.312Z,100.00
2022-08-05T04:24:43.992Z,100.00
2022-08-05T04:27:58.088Z,100.00
2022-08-05T04:31:08.255Z,100.00
2022-08-05T04:34:31.729Z,100.00
2022-08-05T04:38:02.995Z,100.00
2022-08-05T04:41:05.896Z,100.00
2022-08-05T04:44:16.233Z,100.00
2022-08-05T04:47:30.851Z,100.00
2022-08-05T04:51:02.654Z,100.00
2022-08-05T04:54:16.608Z,100.00
2022-08-05T04:57:24.035Z,100.00
2022-08-05T05:00:38.905Z,100.00
2022-08-05T05:03:45.693Z,100.00
2022-08-05T05:06:52.067Z,100.00
2022-08-05T05:10:06.543Z,100.00
2022-08-05T05:13:14.935Z,100.00
2022-08-05T05:16:22.551Z,100.00
2022-08-05T05:19:44.335Z,100.00
2022-08-05T05:22:53.886Z,100.00
2022-08-05T05:26:00.065Z,100.00
2022-08-05T05:29:14.393Z,100.00
2022-08-05T05:32:22.871Z,100.00
2022-08-05T05:35:34.244Z,98.17
2022-08-05T05:38:44.708Z,97.43
2022-08-05T05:41:54.500Z,95.63
2022-08-05T05:45:01.272Z,94.72
2022-08-05T05:48:10.894Z,92.78
2022-08-05T05:51:23.043Z,91.83
2022-08-05T05:54:49.908Z,93.36
2022-08-05T05:57:55.599Z,89.92
2022-08-05T06:01:12.790Z,86.20
2022-08-05T06:04:22.066Z,84.45
2022-08-05T06:07:42.127Z,84.17
2022-08-05T06:10:52.512Z,83.74
2022-08-05T06:14:00.276Z,80.13
2022-08-05T06:17:24.209Z,80.23
2022-08-05T06:20:32.456Z,76.61
2022-08-05T06:23:43.850Z,73.37
2022-08-05T06:26:52.274Z,72.69
2022-08-05T06:30:04.259Z,70.53
2022-08-05T06:33:12.390Z,70.89
2022-08-05T06:36:26.746Z,65.58
2022-08-05T06:39:43.860Z,63.78
2022-08-05T06:42:52.615Z,65.00
2022-08-05T06:46:03.603Z,62.82
2022-08-05T06:49:10.649Z,63.22
2022-08-05T06:52:36.989Z,63.48
2022-08-05T06:55:44.446Z,62.75
2022-08-05T06:58:51.974Z,60.77
2022-08-05T07:01:58.313Z,60.05
2022-08-05T07:05:05.014Z,57.73
2022-08-05T07:08:23.580Z,58.61
2022-08-05T07:11:32.273Z,58.97
2022-08-05T07:15:01.117Z,56.57
2022-08-05T07:18:09.829Z,56.61
2022-08-05T07:21:17.800Z,57.99
2022-08-05T07:24:35.108Z,56.41
2022-08-05T07:27:57.741Z,55.84
2022-08-05T07:31:10.109Z,56.69
2022-08-05T07:34:21.168Z,56.22
2022-08-05T07:37:37.521Z,54.72
2022-08-05T07:40:47.565Z,54.03
2022-08-05T07:44:02.636Z,53.72
2022-08-05T07:47:10.403Z,54.88
2022-08-05T07:50:24.964Z,52.60
2022-08-05T07:53:50.477Z,52.11
2022-08-05T07:57:02.367Z,51.19
2022-08-05T08:00:24.602Z,51.35
2022-08-05T08:03:44.345Z,49.89
2022-08-05T08:06:51.336Z,48.64
2022-08-05T08:09:57.551Z,50.11
2022-08-05T08:13:05.604Z,46.14
2022-08-05T08:16:35.842Z,44.60
2022-08-05T08:20:43.664Z,46.09
2022-08-05T08:23:04.736Z,42.83
2022-08-05T08:26:10.923Z,42.21
2022-08-05T08:29:29.622Z,41.07
2022-08-05T08:32:46.069Z,39.24
2022-08-05T08:36:07.820Z,38.00
2022-08-05T08:39:20.052Z,38.51
2022-08-05T08:42:34.478Z,37.07
2022-08-05T08:45:56.565Z,39.46
2022-08-05T08:50:22.276Z,37.61
2022-08-05T08:52:33.543Z,37.77
2022-08-05T08:56:04.478Z,36.77
2022-08-05T08:59:19.368Z,37.07
2022-08-05T09:02:29.447Z,39.09
2022-08-05T09:05:38.664Z,37.51
2022-08-05T09:09:03.427Z,36.30
2022-08-05T09:12:20.486Z,36.91
2022-08-05T09:15:37.073Z,35.63
2022-08-05T09:18:45.678Z,35.50
2022-08-05T09:22:21.889Z,35.40
2022-08-05T09:25:23.981Z,35.56
2022-08-05T09:28:31.959Z,35.15
2022-08-05T09:32:41.097Z,34.27
2022-08-05T09:35:26.649Z,35.84
2022-08-05T09:38:33.986Z,33.89
2022-08-05T09:42:00.790Z,35.53
2022-08-05T09:46:04.707Z,35.65
2022-08-05T09:48:38.464Z,35.25
2022-08-05T09:51:49.694Z,36.65
2022-08-05T09:54:59.905Z,34.18
2022-08-05T09:58:14.131Z,35.13
2022-08-05T10:01:31.945Z,35.35
2022-08-05T10:04:41.176Z,33.88
2022-08-05T10:08:36.136Z,33.94
2022-08-05T10:11:18.740Z,33.37
2022-08-05T10:14:27.180Z,33.33
2022-08-05T10:17:37.177Z,32.25
2022-08-05T10:20:48.624Z,32.42
2022-08-05T10:24:00.366Z,33.58
2022-08-05T10:27:08.005Z,33.23
2022-08-05T10:31:19.958Z,34.00
2022-08-05T10:33:42.533Z,32.12
2022-08-05T10:36:49.319Z,34.47
2022-08-05T10:40:17.387Z,34.30
2022-08-05T10:43:35.846Z,34.05
2022-08-05T10:46:51.144Z,36.94
2022-08-05T10:50:32.695Z,34.98
2022-08-05T10:53:42.573Z,34.96
2022-08-05T10:56:56.141Z,35.30
2022-08-05T11:00:19.775Z,33.60
2022-08-05T11:03:27.497Z,33.93
2022-08-05T11:06:35.526Z,33.67
2022-08-05T11:09:47.055Z,32.48
2022-08-05T11:12:55.991Z,32.75
2022-08-05T11:16:47.779Z,31.98
2022-08-05T11:20:10.311Z,32.58
2022-08-05T11:24:03.129Z,35.40
2022-08-05T11:27:37.035Z,35.42
2022-08-05T11:31:57.290Z,36.83
2022-08-05T11:35:00.594Z,34.35
2022-08-05T11:38:26.587Z,35.54
2022-08-05T11:42:01.508Z,34.18
2022-08-05T11:45:05.375Z,34.02
2022-08-05T11:48:13.369Z,38.30
2022-08-05T11:51:44.775Z,36.81
2022-08-05T11:54:54.962Z,38.20
2022-08-05T11:58:09.298Z,36.45
2022-08-05T12:01:19.919Z,36.55
2022-08-05T12:04:29.392Z,34.36
2022-08-05T12:08:03.757Z,34.50
2022-08-05T12:11:06.654Z,32.35
2022-08-05T12:14:12.896Z,31.06
2022-08-05T12:18:04.292Z,34.26
2022-08-05T12:20:48.498Z,33.94
2022-08-05T12:24:04.537Z,33.81
2022-08-05T12:27:21.528Z,33.90
2022-08-05T12:30:39.336Z,31.10
2022-08-05T12:33:53.186Z,32.55
2022-08-05T12:37:10.676Z,32.03
2022-08-05T12:40:26.914Z,33.19
2022-08-05T12:43:35.020Z,29.49
2022-08-05T12:46:54.250Z,30.34
2022-08-05T12:50:06.419Z,30.75
2022-08-05T12:53:18.704Z,31.02
2022-08-05T12:56:34.862Z,30.06
2022-08-05T13:01:58.386Z,30.47
2022-08-05T13:03:15.936Z,29.59
2022-08-05T13:06:22.964Z,30.81
2022-08-05T13:09:31.875Z,31.69
2022-08-05T13:12:42.703Z,31.81
2022-08-05T13:15:57.552Z,32.20
2022-08-05T13:19:04.806Z,31.82
2022-08-05T13:22:12.087Z,31.06
2022-08-05T13:25:22.021Z,31.76
2022-08-05T13:28:48.324Z,29.78
2022-08-05T13:32:04.758Z,32.62
2022-08-05T13:35:11.627Z,31.84
2022-08-05T13:38:28.489Z,33.22
2022-08-05T13:41:42.380Z,32.54
2022-08-05T13:44:51.760Z,32.89
2022-08-05T13:48:09.128Z,33.46
2022-08-05T13:51:36.525Z,33.26
2022-08-05T13:54:53.397Z,33.95
2022-08-05T13:58:01.221Z,32.83
2022-08-05T14:01:07.768Z,31.19
2022-08-05T14:04:31.498Z,31.74
2022-08-05T14:08:00.832Z,30.46
2022-08-05T14:11:20.581Z,31.86
2022-08-05T14:14:33.528Z,32.44
2022-08-05T14:17:40.396Z,32.46
2022-08-05T14:20:48.936Z,32.58
2022-08-05T14:24:00.635Z,31.88
2022-08-05T14:27:18.165Z,31.63
2022-08-05T14:30:27.907Z,30.19
2022-08-05T14:33:59.983Z,31.18
2022-08-05T14:37:01.195Z,30.65
2022-08-05T14:40:08.819Z,30.22
2022-08-05T14:43:15.318Z,30.43
2022-08-05T14:46:28.874Z,31.05
2022-08-05T14:49:59.232Z,30.76
2022-08-05T14:53:02.331Z,32.14
2022-08-05T14:56:09.364Z,32.66
2022-08-05T14:59:18.476Z,33.52
2022-08-05T15:02:29.161Z,33.50
2022-08-05T15:06:13.282Z,33.17
2022-08-05T15:09:03.838Z,33.72
2022-08-05T15:12:11.592Z,33.53
2022-08-05T15:15:54.616Z,33.44
2022-08-05T15:18:50.385Z,34.74
2022-08-05T15:22:00.281Z,33.59
2022-08-05T15:25:12.018Z,33.44
2022-08-05T15:28:20.385Z,29.71
2022-08-05T15:31:34.907Z,33.38
2022-08-05T15:34:42.887Z,35.42
2022-08-05T15:38:34.490Z,36.13
2022-08-05T15:41:22.937Z,36.26
2022-08-05T15:44:30.993Z,36.95
2022-08-05T15:47:37.338Z,37.72
2022-08-05T15:50:48.660Z,37.92
2022-08-05T15:53:55.184Z,37.26
2022-08-05T15:57:07.611Z,37.80
2022-08-05T16:00:17.035Z,37.39
2022-08-05T16:03:36.560Z,38.32
2022-08-05T16:06:49.085Z,38.32
2022-08-05T16:09:55.182Z,38.69
2022-08-05T16:13:01.075Z,40.03
2022-08-05T16:16:07.975Z,40.08
2022-08-05T16:19:25.491Z,40.41
2022-08-05T16:22:44.201Z,40.51
2022-08-05T16:25:55.812Z,41.13
2022-08-05T16:29:02.414Z,41.02
2022-08-05T16:32:09.898Z,41.05
2022-08-05T16:35:17.141Z,41.09
2022-08-05T16:38:28.085Z,42.99
2022-08-05T16:42:12.836Z,41.77
2022-08-05T16:45:01.105Z,42.25
2022-08-05T16:48:07.635Z,42.11
2022-08-05T16:51:17.068Z,42.48
2022-08-05T16:54:28.894Z,44.00
2022-08-05T16:57:52.919Z,44.17
2022-08-05T17:01:00.360Z,45.89
2022-08-05T17:04:07.223Z,45.68
2022-08-05T17:07:13.910Z,48.18
2022-08-05T17:10:41.736Z,48.48
2022-08-05T17:13:48.372Z,47.02
2022-08-05T17:16:54.707Z,48.71
2022-08-05T17:20:01.235Z,48.61
2022-08-05T17:23:08.590Z,48.77
2022-08-05T17:26:36.682Z,50.29
2022-08-05T17:29:45.754Z,50.30
2022-08-05T17:32:53.733Z,50.92
2022-08-05T17:36:08.918Z,51.92
2022-08-05T17:39:33.339Z,50.80
2022-08-05T17:42:50.526Z,52.66
2022-08-05T17:45:57.928Z,49.81
2022-08-05T17:49:06.164Z,50.16
2022-08-05T17:52:13.718Z,48.81
2022-08-05T17:55:21.990Z,50.41
2022-08-05T17:58:32.568Z,50.53
2022-08-05T18:01:49.497Z,51.26
2022-08-05T18:04:56.830Z,52.76
2022-08-05T18:08:05.149Z,53.13
2022-08-05T18:11:11.461Z,51.32
2022-08-05T18:14:32.612Z,50.82
2022-08-05T18:18:00.987Z,53.70
2022-08-05T18:21:13.279Z,50.51
2022-08-05T18:24:26.089Z,52.72
2022-08-05T18:27:33.440Z,54.21
2022-08-05T18:30:41.623Z,53.84
2022-08-05T18:33:51.517Z,53.61
2022-08-05T18:36:58.363Z,51.62
2022-08-05T18:41:03.362Z,52.27
2022-08-05T18:43:37.876Z,51.21
2022-08-05T18:46:50.446Z,51.69
2022-08-05T18:50:15.662Z,54.00
2022-08-05T18:53:24.694Z,53.92
2022-08-05T18:56:32.628Z,54.89
2022-08-05T18:59:43.925Z,55.11
2022-08-05T19:03:06.531Z,54.21
2022-08-05T19:06:21.435Z,55.90
2022-08-05T19:09:28.543Z,56.76
2022-08-05T19:12:46.420Z,57.70
2022-08-05T19:16:00.064Z,58.46
2022-08-05T19:19:10.589Z,56.68
2022-08-05T19:22:27.509Z,56.49
2022-08-05T19:25:39.220Z,58.04
2022-08-05T19:28:49.940Z,61.04
2022-08-05T19:31:57.335Z,66.92
2022-08-05T19:35:06.668Z,70.03
2022-08-05T19:38:13.199Z,66.67
2022-08-05T19:41:58.434Z,70.39
2022-08-05T19:44:48.008Z,70.08
2022-08-05T19:47:55.826Z,68.15
2022-08-05T19:51:03.343Z,64.54
2022-08-05T19:54:22.811Z,63.33
2022-08-05T19:57:57.256Z,65.31
2022-08-05T20:01:03.186Z,66.38
2022-08-05T20:04:11.733Z,66.78
2022-08-05T20:07:48.076Z,66.59
2022-08-05T20:10:45.860Z,69.83
2022-08-05T20:14:11.967Z,73.05
2022-08-05T20:17:19.258Z,75.63
2022-08-05T20:20:29.878Z,73.88
2022-08-05T20:23:50.192Z,77.27
2022-08-05T20:26:57.729Z,77.55
2022-08-05T20:30:03.925Z,82.13
2022-08-05T20:33:10.530Z,86.11
2022-08-05T20:36:17.957Z,87.04
2022-08-05T20:39:25.975Z,91.66
2022-08-05T20:42:43.573Z,90.44
2022-08-05T20:45:56.607Z,92.97
2022-08-05T20:49:03.914Z,93.47
2022-08-05T20:52:12.663Z,92.45
2022-08-05T20:55:56.310Z,91.35
2022-08-05T20:58:47.557Z,92.87
2022-08-05T21:01:58.544Z,91.85
2022-08-05T21:05:05.743Z,93.08
2022-08-05T21:08:15.509Z,92.69
2022-08-05T21:12:09.643Z,92.08
2022-08-05T21:14:50.055Z,90.16
2022-08-05T21:17:56.403Z,92.45
2022-08-05T21:21:03.866Z,95.53
2022-08-05T21:24:12.889Z,94.78
2022-08-05T21:27:27.103Z,95.81
2022-08-05T21:30:34.060Z,98.12
2022-08-05T21:33:40.611Z,97.26
2022-08-05T21:36:46.670Z,98.99
2022-08-05T21:39:55.592Z,99.01
2022-08-05T21:43:05.730Z,99.50
2022-08-05T21:46:14.368Z,95.72
2022-08-05T21:49:59.422Z,98.07
2022-08-05T21:52:47.312Z,100.00
2022-08-05T21:56:06.136Z,100.00
2022-08-05T21:59:24.112Z,100.00
2022-08-05T22:02:32.572Z,100.00
2022-08-05T22:05:48.868Z,100.00
2022-08-05T22:08:55.566Z,100.00
2022-08-05T22:12:03.549Z,100.00
2022-08-05T22:16:00.781Z,100.00
2022-08-05T22:18:49.119Z,100.00
2022-08-05T22:21:56.091Z,100.00
2022-08-05T22:25:27.515Z,100.00
2022-08-05T22:28:37.831Z,100.00
2022-08-05T22:31:46.047Z,100.00
2022-08-05T22:35:01.623Z,100.00
2022-08-05T22:38:09.941Z,100.00
2022-08-05T22:42:04.353Z,100.00
2022-08-05T22:44:56.337Z,100.00
2022-08-05T22:48:05.517Z,100.00
2022-08-05T22:51:16.070Z,100.00
2022-08-05T22:54:29.480Z,100.00
2022-08-05T22:57:36.523Z,100.00
2022-08-05T23:00:42.901Z,100.00
2022-08-05T23:03:58.503Z,100.00
2022-08-05T23:07:06.991Z,100.00
2022-08-05T23:10:13.637Z,100.00
2022-08-05T23:13:20.097Z,100.00
2022-08-05T23:16:40.230Z,100.00
2022-08-05T23:19:56.196Z,100.00
2022-08-05T23:23:03.634Z,100.00
2022-08-05T23:26:14.033Z,100.00
2022-08-05T23:29:21.538Z,100.00
2022-08-05T23:32:28.281Z,100.00
2022-08-05T23:35:36.293Z,100.00
2022-08-05T23:38:44.097Z,100.00
2022-08-05T23:41:50.486Z,100.00
2022-08-05T23:44:57.075Z,100.00
2022-08-05T23:48:04.451Z,100.00
2022-08-05T23:51:12.551Z,100.00
2022-08-05T23:54:25.848Z,100.00
2022-08-05T23:57:32.644Z,100.00
